createdAt,value
2023-04-05T00:02:38.341Z,3.54
2023-04-05T00:05:13.669Z,3.53
2023-04-05T00:07:55.732Z,3.57
2023-04-05T00:10:30.842Z,3.56
2023-04-05T00:13:26.973Z,3.57
2023-04-05T00:15:55.001Z,3.53
2023-04-05T00:18:35.431Z,3.51
2023-04-05T00:21:04.717Z,3.55
2023-04-05T00:26:43.212Z,3.56
2023-04-05T00:29:21.904Z,3.55
2023-04-05T00:31:54.845Z,3.53
2023-04-05T00:34:42.787Z,3.54
2023-04-05T00:37:27.211Z,3.54
2023-04-05T00:40:20.716Z,3.55
2023-04-05T00:43:26.244Z,3.53
2023-04-05T00:46:05.747Z,3.47
2023-04-05T00:48:40.099Z,3.47
2023-04-05T00:51:12.776Z,3.48
2023-04-05T00:53:46.225Z,3.47
2023-04-05T00:56:28.062Z,3.52
2023-04-05T00:58:56.143Z,3.49
2023-04-05T01:01:27.744Z,3.50
2023-04-05T01:04:07.499Z,3.47
2023-04-05T01:06:52.705Z,3.45
2023-04-05T01:09:45.988Z,3.43
2023-04-05T01:12:19.989Z,3.40
2023-04-05T01:14:58.507Z,3.39
2023-04-05T01:17:29.667Z,3.35
2023-04-05T01:20:21.788Z,3.33
2023-04-05T01:23:10.499Z,3.32
2023-04-05T01:26:03.111Z,3.33
2023-04-05T01:28:52.203Z,3.38
2023-04-05T01:31:43.039Z,3.41
2023-04-05T01:34:30.011Z,3.38
2023-04-05T01:37:27.890Z,3.38
2023-04-05T01:40:10.598Z,3.38
2023-04-05T01:42:49.565Z,3.36
2023-04-05T01:45:23.241Z,3.33
2023-04-05T01:50:54.542Z,3.28
2023-04-05T01:53:36.910Z,3.26
2023-04-05T01:56:10.305Z,3.10
2023-04-05T01:58:48.268Z,2.88
2023-04-05T02:01:39.257Z,2.78
2023-04-05T02:04:22.549Z,2.71
2023-04-05T02:06:56.370Z,2.76
2023-04-05T02:09:29.463Z,2.76
2023-04-05T02:12:11.748Z,2.74
2023-04-05T02:14:45.572Z,2.71
2023-04-05T02:17:27.514Z,2.73
2023-04-05T02:20:11.818Z,2.76
2023-04-05T02:22:56.407Z,2.81
2023-04-05T02:25:36.131Z,2.82
2023-04-05T02:28:11.337Z,2.81
2023-04-05T02:30:53.745Z,2.85
2023-04-05T02:33:47.160Z,2.81
2023-04-05T02:36:23.522Z,2.81
2023-04-05T02:38:56.923Z,2.76
2023-04-05T02:41:26.389Z,2.74
2023-04-05T02:44:02.163Z,2.73
2023-04-05T02:46:42.421Z,2.72
2023-04-05T02:49:21.012Z,2.72
2023-04-05T02:51:49.084Z,2.70
2023-04-05T02:54:29.526Z,2.70
2023-04-05T02:57:14.502Z,2.70
2023-04-05T02:59:54.851Z,2.68
2023-04-05T03:02:23.235Z,2.67
2023-04-05T03:05:07.232Z,2.64
2023-04-05T03:07:48.325Z,2.63
2023-04-05T03:10:20.036Z,2.59
2023-04-05T03:13:18.212Z,2.51
2023-04-05T03:15:50.961Z,2.49
2023-04-05T03:18:20.430Z,2.42
2023-04-05T03:21:06.618Z,2.42
2023-04-05T03:23:59.652Z,2.40
2023-04-05T03:26:34.674Z,2.32
2023-04-05T03:29:08.369Z,2.27
2023-04-05T03:31:43.994Z,2.25
2023-04-05T03:34:16.972Z,2.17
2023-04-05T03:36:52.763Z,2.12
2023-04-05T03:39:45.777Z,2.04
2023-04-05T03:42:21.648Z,2.00
2023-04-05T03:44:55.419Z,1.91
2023-04-05T03:47:51.330Z,1.84
2023-04-05T03:50:48.721Z,1.83
2023-04-05T03:53:31.014Z,1.78
2023-04-05T03:56:07.710Z,1.77
2023-04-05T03:58:36.749Z,1.72
2023-04-05T04:01:08.138Z,1.66
2023-04-05T04:04:01.267Z,1.60
2023-04-05T04:06:36.983Z,1.55
2023-04-05T04:09:25.484Z,1.53
2023-04-05T04:12:08.073Z,1.48
2023-04-05T04:14:48.481Z,1.45
2023-04-05T04:17:37.938Z,1.44
2023-04-05T04:20:12.343Z,1.40
2023-04-05T04:22:45.226Z,1.36
2023-04-05T04:25:20.375Z,1.37
2023-04-05T04:27:57.514Z,1.32
2023-04-05T04:30:36.186Z,1.27
2023-04-05T04:33:09.497Z,1.26
2023-04-05T04:35:52.767Z,1.26
2023-04-05T04:38:38.745Z,1.20
2023-04-05T04:41:15.233Z,1.13
2023-04-05T04:43:46.440Z,1.09
2023-04-05T04:46:20.310Z,1.02
2023-04-05T04:48:58.516Z,1.03
2023-04-05T04:51:52.453Z,1.03
2023-04-05T04:54:48.610Z,1.01
2023-04-05T04:57:31.654Z,0.98
2023-04-05T05:00:13.409Z,1.00
2023-04-05T05:02:55.423Z,0.98
2023-04-05T05:05:28.865Z,1.01
2023-04-05T05:08:07.317Z,0.99
2023-04-05T05:10:41.311Z,0.93
2023-04-05T05:16:10.856Z,0.97
2023-04-05T05:18:54.590Z,0.95
2023-04-05T05:21:33.777Z,0.91
2023-04-05T05:24:08.604Z,0.86
2023-04-05T05:26:41.719Z,0.94
2023-04-05T05:29:22.604Z,0.90
2023-04-05T05:32:20.609Z,0.91
2023-04-05T05:35:04.724Z,0.88
2023-04-05T05:37:36.119Z,0.88
2023-04-05T05:40:14.922Z,0.93
2023-04-05T05:42:49.505Z,0.91
2023-04-05T05:45:22.578Z,0.91
2023-04-05T05:48:04.511Z,0.93
2023-04-05T05:50:34.281Z,1.00
2023-04-05T05:53:02.548Z,1.07
2023-04-05T05:55:44.309Z,1.13
2023-04-05T05:58:48.866Z,1.21
2023-04-05T06:01:41.645Z,1.25
2023-04-05T06:04:27.265Z,1.34
2023-04-05T06:07:09.798Z,1.42
2023-04-05T06:09:54.052Z,1.50
2023-04-05T06:12:29.912Z,1.56
2023-04-05T06:15:03.972Z,1.65
2023-04-05T06:17:50.154Z,1.72
2023-04-05T06:20:29.139Z,1.82
2023-04-05T06:23:03.631Z,1.91
2023-04-05T06:25:36.721Z,1.98
2023-04-05T06:28:14.030Z,2.03
2023-04-05T06:31:16.505Z,2.14
2023-04-05T06:33:55.738Z,2.24
2023-04-05T06:36:27.413Z,2.35
2023-04-05T06:39:20.882Z,2.44
2023-04-05T06:42:02.509Z,2.51
2023-04-05T06:45:04.127Z,2.95
2023-04-05T06:47:38.849Z,3.01
2023-04-05T06:50:33.445Z,3.33
2023-04-05T06:53:39.030Z,3.36
2023-04-05T06:56:10.666Z,3.32
2023-04-05T06:58:49.772Z,3.31
2023-04-05T07:01:33.118Z,3.32
2023-04-05T07:07:34.545Z,3.27
2023-04-05T07:10:07.920Z,3.41
2023-04-05T07:12:48.078Z,3.50
2023-04-05T07:15:21.941Z,3.51
2023-04-05T07:17:58.763Z,3.60
2023-04-05T07:20:46.738Z,3.70
2023-04-05T07:23:20.762Z,3.86
2023-04-05T07:25:59.072Z,3.85
2023-04-05T07:28:49.598Z,3.90
2023-04-05T07:31:23.302Z,3.95
2023-04-05T07:33:51.313Z,3.99
2023-04-05T07:36:44.726Z,4.04
2023-04-05T07:39:25.080Z,4.18
2023-04-05T07:44:44.062Z,4.41
2023-04-05T07:47:12.473Z,4.51
2023-04-05T07:50:13.140Z,4.63
2023-04-05T07:52:46.252Z,4.72
2023-04-05T07:58:05.619Z,5.07
2023-04-05T08:00:39.802Z,5.23
2023-04-05T08:03:13.172Z,5.35
2023-04-05T08:06:11.232Z,5.53
2023-04-05T08:08:57.139Z,5.58
2023-04-05T08:11:44.895Z,5.71
2023-04-05T08:14:13.892Z,5.86
2023-04-05T08:16:48.942Z,6.01
2023-04-05T08:19:25.020Z,6.05
2023-04-05T08:21:58.329Z,6.14
2023-04-05T08:24:32.075Z,6.26
2023-04-05T08:27:09.044Z,6.57
2023-04-05T08:29:58.503Z,6.68
2023-04-05T08:32:41.202Z,6.80
2023-04-05T08:35:20.159Z,6.93
2023-04-05T08:40:47.124Z,7.18
2023-04-05T08:43:34.476Z,7.59
2023-04-05T08:46:30.985Z,7.82
2023-04-05T08:49:09.270Z,7.98
2023-04-05T08:51:43.452Z,8.12
2023-04-05T08:54:19.584Z,8.15
2023-04-05T09:00:05.413Z,8.45
2023-04-05T09:02:39.370Z,8.70
2023-04-05T09:05:21.285Z,8.76
2023-04-05T09:08:11.142Z,9.03
2023-04-05T09:10:41.119Z,9.14
2023-04-05T09:13:12.011Z,9.25
2023-04-05T09:15:53.174Z,9.51
2023-04-05T09:18:33.470Z,9.89
2023-04-05T09:21:22.839Z,10.13
2023-04-05T09:23:57.651Z,9.90
2023-04-05T09:26:34.213Z,9.82
2023-04-05T09:29:07.316Z,10.12
2023-04-05T09:31:57.770Z,10.40
2023-04-05T09:34:38.175Z,10.47
2023-04-05T09:37:25.226Z,10.44
2023-04-05T09:40:15.811Z,10.46
2023-04-05T09:42:58.983Z,10.34
2023-04-05T09:45:40.599Z,10.40
2023-04-05T09:48:15.172Z,10.56
2023-04-05T09:51:17.836Z,10.53
2023-04-05T09:54:04.838Z,10.46
2023-04-05T09:56:43.937Z,10.62
2023-04-05T09:59:25.973Z,10.79
2023-04-05T10:01:59.796Z,10.83
2023-04-05T10:04:48.112Z,10.68
2023-04-05T10:07:27.716Z,10.78
2023-04-05T10:09:58.156Z,10.57
2023-04-05T10:12:33.492Z,10.87
2023-04-05T10:15:06.722Z,11.11
2023-04-05T10:18:02.109Z,11.14
2023-04-05T10:20:42.096Z,10.96
2023-04-05T10:23:29.544Z,11.10
2023-04-05T10:26:26.785Z,11.20
2023-04-05T10:28:57.806Z,10.86
2023-04-05T10:32:13.740Z,10.76
2023-04-05T10:35:13.532Z,10.75
2023-04-05T10:38:15.642Z,10.88
2023-04-05T10:40:48.787Z,10.94
2023-04-05T10:43:30.231Z,10.84
2023-04-05T10:46:08.195Z,10.76
2023-04-05T10:49:06.769Z,10.72
2023-04-05T10:51:48.545Z,10.91
2023-04-05T10:54:25.017Z,11.13
2023-04-05T10:57:09.048Z,11.37
2023-04-05T10:59:50.368Z,11.38
2023-04-05T11:02:24.047Z,11.20
2023-04-05T11:05:01.979Z,11.36
2023-04-05T11:07:54.058Z,11.68
2023-04-05T11:10:22.133Z,12.08
2023-04-05T11:13:02.131Z,12.39
2023-04-05T11:15:41.450Z,12.62
2023-04-05T11:18:23.238Z,12.46
2023-04-05T11:21:14.571Z,12.54
2023-04-05T11:24:08.313Z,12.47
2023-04-05T11:27:07.686Z,12.30
2023-04-05T11:29:57.953Z,12.47
2023-04-05T11:32:53.887Z,12.59
2023-04-05T11:35:38.434Z,12.76
2023-04-05T11:38:31.498Z,12.94
2023-04-05T11:41:19.577Z,13.09
2023-04-05T11:44:00.611Z,13.30
2023-04-05T11:46:40.048Z,13.64
2023-04-05T11:49:11.526Z,13.88
2023-04-05T11:51:50.192Z,14.10
2023-04-05T11:54:38.533Z,14.28
2023-04-05T11:57:11.533Z,14.27
2023-04-05T11:59:56.456Z,14.41
2023-04-05T12:02:30.485Z,14.13
2023-04-05T12:05:09.362Z,14.16
2023-04-05T12:07:48.621Z,14.14
2023-04-05T12:10:20.928Z,14.44
2023-04-05T12:12:57.218Z,14.48
2023-04-05T12:15:29.532Z,14.59
2023-04-05T12:18:00.310Z,14.74
2023-04-05T12:20:34.783Z,14.79
2023-04-05T12:23:03.651Z,14.67
2023-04-05T12:25:44.086Z,14.70
2023-04-05T12:28:18.216Z,14.69
2023-04-05T12:31:12.731Z,14.59
2023-04-05T12:33:55.851Z,14.80
2023-04-05T12:36:26.364Z,14.67
2023-04-05T12:39:02.141Z,14.70
2023-04-05T12:41:42.858Z,14.70
2023-04-05T12:44:31.719Z,14.70
2023-04-05T12:47:12.374Z,14.70
2023-04-05T12:49:48.370Z,14.81
2023-04-05T12:52:28.629Z,14.94
2023-04-05T12:55:08.873Z,15.07
2023-04-05T12:58:23.851Z,15.01
2023-04-05T13:00:55.030Z,15.13
2023-04-05T13:03:28.669Z,14.92
2023-04-05T13:06:02.067Z,15.10
2023-04-05T13:08:36.106Z,15.19
2023-04-05T13:11:13.469Z,15.09
2023-04-05T13:13:52.287Z,15.03
2023-04-05T13:16:25.429Z,14.90
2023-04-05T13:18:58.523Z,15.22
2023-04-05T13:21:32.913Z,15.17
2023-04-05T13:24:05.923Z,15.38
2023-04-05T13:26:50.006Z,15.69
2023-04-05T13:29:18.149Z,15.70
2023-04-05T13:31:50.924Z,15.66
2023-04-05T13:34:30.846Z,15.62
2023-04-05T13:37:12.374Z,15.41
2023-04-05T13:39:43.395Z,15.43
2023-04-05T13:42:18.026Z,15.40
2023-04-05T13:45:16.314Z,15.38
2023-04-05T13:47:49.377Z,15.25
2023-04-05T13:50:26.901Z,15.39
2023-04-05T13:53:00.607Z,15.46
2023-04-05T13:55:34.896Z,15.39
2023-04-05T13:58:02.917Z,15.29
2023-04-05T14:00:35.852Z,15.52
2023-04-05T14:03:10.286Z,15.49
2023-04-05T14:05:38.955Z,15.31
2023-04-05T14:08:20.876Z,15.27
2023-04-05T14:10:48.898Z,15.14
2023-04-05T14:13:19.109Z,15.39
2023-04-05T14:15:53.963Z,15.36
2023-04-05T14:18:25.329Z,15.16
2023-04-05T14:20:57.933Z,15.16
2023-04-05T14:23:28.386Z,15.15
2023-04-05T14:26:02.546Z,15.15
2023-04-05T14:28:33.228Z,15.09
2023-04-05T14:31:05.479Z,14.99
2023-04-05T14:33:36.668Z,14.72
2023-04-05T14:36:18.540Z,14.41
2023-04-05T14:38:51.582Z,14.34
2023-04-05T14:41:23.407Z,14.40
2023-04-05T14:43:56.095Z,14.11
2023-04-05T14:46:30.849Z,14.07
2023-04-05T14:49:21.651Z,13.81
2023-04-05T14:52:02.148Z,13.76
2023-04-05T14:54:45.406Z,13.47
2023-04-05T14:57:21.219Z,13.33
2023-04-05T15:00:01.810Z,13.32
2023-04-05T15:02:36.729Z,13.16
2023-04-05T15:05:06.123Z,12.99
2023-04-05T15:07:37.678Z,12.85
2023-04-05T15:10:06.781Z,12.77
2023-04-05T15:12:50.317Z,12.55
2023-04-05T15:15:20.961Z,12.47
2023-04-05T15:17:53.765Z,12.34
2023-04-05T15:20:27.093Z,12.14
2023-04-05T15:22:56.632Z,12.07
2023-04-05T15:25:44.323Z,12.01
2023-04-05T15:28:17.689Z,11.87
2023-04-05T15:30:48.481Z,11.77
2023-04-05T15:33:17.470Z,11.70
2023-04-05T15:35:48.590Z,11.60
2023-04-05T15:38:21.352Z,11.49
2023-04-05T15:40:51.536Z,11.48
2023-04-05T15:43:26.476Z,11.43
2023-04-05T15:45:59.451Z,11.40
2023-04-05T15:48:30.505Z,11.27
2023-04-05T15:50:58.900Z,11.19
2023-04-05T15:53:27.190Z,11.17
2023-04-05T15:55:59.701Z,11.13
2023-04-05T15:58:28.459Z,11.12
2023-04-05T16:00:56.539Z,11.08
2023-04-05T16:03:29.949Z,11.01
2023-04-05T16:05:58.451Z,10.89
2023-04-05T16:08:35.438Z,10.82
2023-04-05T16:11:10.033Z,10.75
2023-04-05T16:13:38.677Z,10.76
2023-04-05T16:16:15.401Z,10.69
2023-04-05T16:19:01.356Z,10.68
2023-04-05T16:21:54.680Z,10.63
2023-04-05T16:24:28.427Z,10.55
2023-04-05T16:27:02.273Z,10.45
2023-04-05T16:29:34.529Z,10.40
2023-04-05T16:35:38.198Z,10.33
2023-04-05T16:38:12.586Z,10.30
2023-04-05T16:40:57.036Z,10.20
2023-04-05T16:43:25.225Z,10.14
2023-04-05T16:45:53.312Z,10.13
2023-04-05T16:48:21.531Z,10.11
2023-04-05T16:51:05.705Z,10.11
2023-04-05T16:53:57.375Z,10.07
2023-04-05T16:56:55.576Z,10.03
2023-04-05T16:59:34.390Z,10.01
2023-04-05T17:02:27.968Z,10.00
2023-04-05T17:05:14.999Z,9.97
2023-04-05T17:08:18.417Z,9.92
2023-04-05T17:13:37.150Z,9.80
2023-04-05T17:16:16.746Z,9.74
2023-04-05T17:18:56.430Z,9.71
2023-04-05T17:21:31.603Z,9.63
2023-04-05T17:24:26.370Z,9.62
2023-04-05T17:26:59.406Z,9.56
2023-04-05T17:29:32.319Z,9.53
2023-04-05T17:32:05.339Z,9.48
2023-04-05T17:34:59.968Z,9.45
2023-04-05T17:37:30.848Z,9.41
2023-04-05T17:40:02.280Z,9.36
2023-04-05T17:42:36.659Z,9.33
2023-04-05T17:45:07.906Z,9.28
2023-04-05T17:47:41.206Z,9.25
2023-04-05T17:50:14.181Z,9.23
2023-04-05T17:52:42.349Z,9.16
2023-04-05T17:55:15.536Z,9.14
2023-04-05T17:57:57.563Z,9.11
2023-04-05T18:00:40.123Z,9.08
2023-04-05T18:03:30.854Z,9.06
2023-04-05T18:06:15.547Z,9.04
2023-04-05T18:08:46.647Z,9.01
2023-04-05T18:11:26.909Z,8.97
2023-04-05T18:14:01.134Z,8.93
2023-04-05T18:16:30.605Z,8.88
2023-04-05T18:19:04.841Z,8.98
2023-04-05T18:21:46.320Z,8.92
2023-04-05T18:24:26.725Z,8.84
2023-04-05T18:26:55.249Z,8.74
2023-04-05T18:29:39.084Z,8.69
2023-04-05T18:32:08.510Z,8.59
2023-04-05T18:34:36.782Z,8.58
2023-04-05T18:37:09.630Z,8.48
2023-04-05T18:39:43.421Z,8.38
2023-04-05T18:42:14.905Z,8.29
2023-04-05T18:44:46.981Z,8.19
2023-04-05T18:47:20.841Z,8.14
2023-04-05T18:49:48.911Z,8.08
2023-04-05T18:52:25.680Z,8.00
2023-04-05T18:55:08.435Z,7.94
2023-04-05T18:57:54.150Z,7.87
2023-04-05T19:00:23.441Z,7.75
2023-04-05T19:02:51.726Z,7.68
2023-04-05T19:05:29.691Z,7.56
2023-04-05T19:08:01.351Z,7.52
2023-04-05T19:10:36.452Z,7.51
2023-04-05T19:13:04.605Z,7.44
2023-04-05T19:15:38.125Z,7.40
2023-04-05T19:18:13.144Z,7.36
2023-04-05T19:20:55.849Z,7.27
2023-04-05T19:23:54.930Z,7.26
2023-04-05T19:26:23.208Z,7.21
2023-04-05T19:28:56.403Z,7.16
2023-04-05T19:31:36.363Z,7.12
2023-04-05T19:34:12.349Z,7.04
2023-04-05T19:36:55.174Z,6.99
2023-04-05T19:39:27.137Z,6.91
2023-04-05T19:42:00.940Z,6.82
2023-04-05T19:45:23.333Z,6.76
2023-04-05T19:47:51.473Z,6.70
2023-04-05T19:50:56.657Z,6.63
2023-04-05T19:53:44.131Z,6.60
2023-04-05T19:56:23.254Z,6.55
2023-04-05T19:59:01.759Z,6.47
2023-04-05T20:01:37.361Z,6.41
2023-04-05T20:04:20.786Z,6.35
2023-04-05T20:07:02.732Z,6.29
2023-04-05T20:09:31.233Z,6.26
2023-04-05T20:12:05.189Z,6.18
2023-04-05T20:14:42.583Z,6.16
2023-04-05T20:17:10.937Z,6.11
2023-04-05T20:19:40.665Z,6.06
2023-04-05T20:22:25.353Z,6.00
2023-04-05T20:24:58.506Z,5.97
2023-04-05T20:27:32.217Z,5.90
2023-04-05T20:30:09.649Z,5.87
2023-04-05T20:32:51.269Z,5.82
2023-04-05T20:35:33.277Z,5.79
2023-04-05T20:38:03.542Z,5.76
2023-04-05T20:40:47.136Z,5.74
2023-04-05T20:43:15.266Z,5.71
2023-04-05T20:45:48.030Z,5.71
2023-04-05T20:48:26.624Z,5.63
2023-04-05T20:51:02.338Z,5.58
2023-04-05T20:53:30.722Z,5.58
2023-04-05T20:56:02.069Z,5.55
2023-04-05T20:58:35.528Z,5.51
2023-04-05T21:01:18.896Z,5.47
2023-04-05T21:03:47.090Z,5.47
2023-04-05T21:06:15.175Z,5.43
2023-04-05T21:08:43.398Z,5.36
2023-04-05T21:11:16.925Z,5.35
2023-04-05T21:13:45.436Z,5.38
2023-04-05T21:16:20.355Z,5.37
2023-04-05T21:18:57.951Z,5.35
2023-04-05T21:21:32.538Z,5.34
2023-04-05T21:24:00.495Z,5.35
2023-04-05T21:26:35.553Z,5.27
2023-04-05T21:29:07.947Z,5.27
2023-04-05T21:31:36.253Z,5.26
2023-04-05T21:34:08.916Z,5.20
2023-04-05T21:36:42.708Z,5.15
2023-04-05T21:39:14.128Z,5.13
2023-04-05T21:41:42.276Z,5.13
2023-04-05T21:44:10.722Z,5.07
2023-04-05T21:46:44.001Z,5.07
2023-04-05T21:49:12.099Z,5.00
2023-04-05T21:51:45.239Z,4.94
2023-04-05T21:54:15.867Z,4.91
2023-04-05T21:56:47.482Z,4.84
2023-04-05T21:59:20.310Z,4.80
2023-04-05T22:01:57.714Z,4.80
2023-04-05T22:04:30.336Z,4.81
2023-04-05T22:06:58.331Z,4.83
2023-04-05T22:09:26.462Z,4.79
2023-04-05T22:11:58.302Z,4.73
2023-04-05T22:14:34.286Z,4.68
2023-04-05T22:17:03.147Z,4.65
2023-04-05T22:19:33.904Z,4.62
2023-04-05T22:22:06.747Z,4.55
2023-04-05T22:24:55.798Z,4.54
2023-04-05T22:27:26.811Z,4.49
2023-04-05T22:29:55.798Z,4.47
2023-04-05T22:32:23.897Z,4.44
2023-04-05T22:34:51.975Z,4.40
2023-04-05T22:37:20.001Z,4.38
2023-04-05T22:39:48.066Z,4.33
2023-04-05T22:42:16.071Z,4.31
2023-04-05T22:44:44.127Z,4.30
2023-04-05T22:47:12.124Z,4.26
2023-04-05T22:49:40.094Z,4.29
2023-04-05T22:52:12.873Z,4.31
2023-04-05T22:54:41.588Z,4.36
2023-04-05T22:57:11.185Z,4.40
2023-04-05T22:59:51.907Z,4.37
2023-04-05T23:02:22.085Z,4.34
2023-04-05T23:04:55.086Z,4.28
2023-04-05T23:07:23.196Z,4.23
2023-04-05T23:09:51.590Z,4.20
2023-04-05T23:12:23.703Z,4.20
2023-04-05T23:14:59.407Z,4.22
2023-04-05T23:17:32.556Z,4.26
2023-04-05T23:20:04.598Z,4.29
2023-04-05T23:22:38.811Z,4.31
2023-04-05T23:25:07.360Z,4.34
2023-04-05T23:27:43.176Z,4.37
2023-04-05T23:30:11.568Z,4.36
2023-04-05T23:32:45.507Z,4.33
2023-04-05T23:35:18.220Z,4.38
2023-04-05T23:37:51.171Z,4.45
2023-04-05T23:40:19.377Z,4.49
2023-04-05T23:42:52.383Z,4.49
2023-04-05T23:45:26.176Z,4.52
2023-04-05T23:50:42.600Z,4.50
2023-04-05T23:53:15.623Z,4.41
2023-04-05T23:55:49.235Z,4.33
2023-04-05T23:58:17.243Z,4.26
